sensor_id;sensor_type;location;lat;lon;timestamp;pressure;altitude;pressure_sealevel;temperature;humidity
9523;BME280;63165;43.016;25.784;2022-12-10T00:01:58;99299.25;;;13.92;82.57
9523;BME280;63165;43.016;25.784;2022-12-10T00:04:26;99290.81;;;13.84;83.41
9523;BME280;63165;43.016;25.784;2022-12-10T00:06:53;99305.13;;;13.76;83.28
9523;BME280;63165;43.016;25.784;2022-12-10T00:09:20;99306.44;;;13.66;83.27
9523;BME280;63165;43.016;25.784;2022-12-10T00:11:48;99302.50;;;13.56;83.83
9523;BME280;63165;43.016;25.784;2022-12-10T00:14:15;99306.34;;;13.47;84.71
9523;BME280;63165;43.016;25.784;2022-12-10T00:16:44;99311.97;;;13.38;84.42
9523;BME280;63165;43.016;25.784;2022-12-10T00:19:11;99316.69;;;13.28;84.41
9523;BME280;63165;43.016;25.784;2022-12-10T00:21:39;99313.66;;;13.17;85.34
9523;BME280;63165;43.016;25.784;2022-12-10T00:24:06;99313.31;;;13.02;85.17
9523;BME280;63165;43.016;25.784;2022-12-10T00:26:35;99308.22;;;12.98;86.53
9523;BME280;63165;43.016;25.784;2022-12-10T00:29:04;99304.88;;;12.94;86.88
9523;BME280;63165;43.016;25.784;2022-12-10T00:31:33;99296.28;;;12.91;87.01
9523;BME280;63165;43.016;25.784;2022-12-10T00:34:04;99309.69;;;12.83;86.58
9523;BME280;63165;43.016;25.784;2022-12-10T00:36:34;99301.00;;;12.81;87.58
9523;BME280;63165;43.016;25.784;2022-12-10T00:39:02;99305.53;;;12.77;87.28
9523;BME280;63165;43.016;25.784;2022-12-10T00:41:30;99296.22;;;12.69;87.25
9523;BME280;63165;43.016;25.784;2022-12-10T00:43:58;99284.13;;;12.65;88.15
9523;BME280;63165;43.016;25.784;2022-12-10T00:46:25;99295.63;;;12.60;87.90
9523;BME280;63165;43.016;25.784;2022-12-10T00:48:53;99290.66;;;12.53;87.94
9523;BME280;63165;43.016;25.784;2022-12-10T00:51:23;99280.41;;;12.47;88.16
9523;BME280;63165;43.016;25.784;2022-12-10T00:53:51;99288.63;;;12.37;88.07
9523;BME280;63165;43.016;25.784;2022-12-10T00:56:21;99285.44;;;12.29;88.08
9523;BME280;63165;43.016;25.784;2022-12-10T00:58:50;99287.63;;;12.16;88.20
9523;BME280;63165;43.016;25.784;2022-12-10T01:01:19;99286.22;;;12.06;88.32
9523;BME280;63165;43.016;25.784;2022-12-10T01:03:48;99279.56;;;11.97;88.89
9523;BME280;63165;43.016;25.784;2022-12-10T01:06:19;99286.78;;;11.89;89.44
9523;BME280;63165;43.016;25.784;2022-12-10T01:08:49;99273.00;;;11.84;90.02
9523;BME280;63165;43.016;25.784;2022-12-10T01:11:18;99274.97;;;11.77;90.06
9523;BME280;63165;43.016;25.784;2022-12-10T01:13:47;99274.38;;;11.69;90.01
9523;BME280;63165;43.016;25.784;2022-12-10T01:16:17;99277.19;;;11.63;90.66
9523;BME280;63165;43.016;25.784;2022-12-10T01:18:45;99275.56;;;11.59;90.89
9523;BME280;63165;43.016;25.784;2022-12-10T01:21:16;99277.47;;;11.54;91.29
9523;BME280;63165;43.016;25.784;2022-12-10T01:23:45;99274.31;;;11.44;91.59
9523;BME280;63165;43.016;25.784;2022-12-10T01:26:17;99273.47;;;11.43;91.96
9523;BME280;63165;43.016;25.784;2022-12-10T01:28:45;99269.56;;;11.55;94.12
9523;BME280;63165;43.016;25.784;2022-12-10T01:31:16;99262.25;;;11.65;94.38
9523;BME280;63165;43.016;25.784;2022-12-10T01:33:43;99273.50;;;11.69;94.51
9523;BME280;63165;43.016;25.784;2022-12-10T01:36:12;99270.78;;;11.72;94.90
9523;BME280;63165;43.016;25.784;2022-12-10T01:38:40;99265.53;;;11.72;94.79
9523;BME280;63165;43.016;25.784;2022-12-10T01:41:15;99261.28;;;11.69;95.15
9523;BME280;63165;43.016;25.784;2022-12-10T01:43:52;99263.97;;;11.66;95.02
9523;BME280;63165;43.016;25.784;2022-12-10T01:46:20;99261.41;;;11.64;95.05
9523;BME280;63165;43.016;25.784;2022-12-10T01:48:47;99262.34;;;11.63;94.77
9523;BME280;63165;43.016;25.784;2022-12-10T01:51:15;99255.59;;;11.56;95.45
9523;BME280;63165;43.016;25.784;2022-12-10T01:53:43;99256.59;;;11.52;94.76
9523;BME280;63165;43.016;25.784;2022-12-10T01:56:12;99256.66;;;11.51;95.22
9523;BME280;63165;43.016;25.784;2022-12-10T01:58:42;99254.03;;;11.51;95.69
9523;BME280;63165;43.016;25.784;2022-12-10T02:01:12;99247.88;;;11.52;96.24
9523;BME280;63165;43.016;25.784;2022-12-10T02:03:50;99248.63;;;11.55;96.62
9523;BME280;63165;43.016;25.784;2022-12-10T02:06:31;99239.66;;;11.62;97.60
9523;BME280;63165;43.016;25.784;2022-12-10T02:09:06;99241.97;;;11.72;97.87
9523;BME280;63165;43.016;25.784;2022-12-10T02:11:42;99232.94;;;11.80;97.87
9523;BME280;63165;43.016;25.784;2022-12-10T02:14:16;99228.25;;;11.89;97.71
9523;BME280;63165;43.016;25.784;2022-12-10T02:16:48;99237.56;;;11.99;96.49
9523;BME280;63165;43.016;25.784;2022-12-10T02:19:25;99220.81;;;12.03;96.11
9523;BME280;63165;43.016;25.784;2022-12-10T02:21:55;99220.69;;;12.06;96.47
9523;BME280;63165;43.016;25.784;2022-12-10T02:24:25;99227.41;;;12.13;95.33
9523;BME280;63165;43.016;25.784;2022-12-10T02:27:02;99232.75;;;12.59;95.82
9523;BME280;63165;43.016;25.784;2022-12-10T02:29:33;99219.25;;;12.90;94.21
9523;BME280;63165;43.016;25.784;2022-12-10T02:32:04;99228.59;;;13.19;92.86
9523;BME280;63165;43.016;25.784;2022-12-10T02:34:37;99228.63;;;13.62;91.53
9523;BME280;63165;43.016;25.784;2022-12-10T02:37:09;99234.34;;;13.92;89.28
9523;BME280;63165;43.016;25.784;2022-12-10T02:39:40;99235.84;;;14.18;86.92
9523;BME280;63165;43.016;25.784;2022-12-10T02:42:10;99239.75;;;14.29;86.02
9523;BME280;63165;43.016;25.784;2022-12-10T02:44:40;99244.03;;;14.31;85.55
9523;BME280;63165;43.016;25.784;2022-12-10T02:47:09;99233.94;;;14.41;84.60
9523;BME280;63165;43.016;25.784;2022-12-10T02:49:39;99234.59;;;14.46;83.56
9523;BME280;63165;43.016;25.784;2022-12-10T02:52:08;99231.81;;;14.49;83.42
9523;BME280;63165;43.016;25.784;2022-12-10T02:54:39;99236.28;;;14.47;82.41
9523;BME280;63165;43.016;25.784;2022-12-10T02:57:18;99230.03;;;14.50;81.83
9523;BME280;63165;43.016;25.784;2022-12-10T03:00:07;99245.78;;;14.51;81.83
9523;BME280;63165;43.016;25.784;2022-12-10T03:02:43;99234.38;;;14.51;82.23
9523;BME280;63165;43.016;25.784;2022-12-10T03:05:19;99229.97;;;14.51;82.22
9523;BME280;63165;43.016;25.784;2022-12-10T03:07:52;99223.06;;;14.49;82.35
9523;BME280;63165;43.016;25.784;2022-12-10T03:10:27;99226.53;;;14.49;82.36
9523;BME280;63165;43.016;25.784;2022-12-10T03:12:58;99223.78;;;14.52;82.45
9523;BME280;63165;43.016;25.784;2022-12-10T03:15:30;99227.47;;;14.48;82.09
9523;BME280;63165;43.016;25.784;2022-12-10T03:18:02;99222.28;;;14.47;82.37
9523;BME280;63165;43.016;25.784;2022-12-10T03:20:31;99222.09;;;14.51;81.96
9523;BME280;63165;43.016;25.784;2022-12-10T03:23:00;99214.97;;;14.53;82.55
9523;BME280;63165;43.016;25.784;2022-12-10T03:25:29;99217.81;;;14.68;81.31
9523;BME280;63165;43.016;25.784;2022-12-10T03:27:59;99212.69;;;14.84;80.76
9523;BME280;63165;43.016;25.784;2022-12-10T03:30:29;99206.81;;;14.96;80.23
9523;BME280;63165;43.016;25.784;2022-12-10T03:32:59;99202.97;;;15.03;79.84
9523;BME280;63165;43.016;25.784;2022-12-10T03:35:26;99201.53;;;15.15;78.24
9523;BME280;63165;43.016;25.784;2022-12-10T03:37:54;99200.16;;;15.25;77.04
9523;BME280;63165;43.016;25.784;2022-12-10T03:40:23;99194.34;;;15.36;76.73
9523;BME280;63165;43.016;25.784;2022-12-10T03:42:51;99199.84;;;15.49;76.46
9523;BME280;63165;43.016;25.784;2022-12-10T03:45:18;99207.84;;;15.65;75.40
9523;BME280;63165;43.016;25.784;2022-12-10T03:47:47;99191.25;;;15.80;73.74
9523;BME280;63165;43.016;25.784;2022-12-10T03:50:15;99186.72;;;16.00;73.28
9523;BME280;63165;43.016;25.784;2022-12-10T03:52:42;99194.84;;;16.13;71.76
9523;BME280;63165;43.016;25.784;2022-12-10T03:55:10;99182.00;;;16.22;71.58
9523;BME280;63165;43.016;25.784;2022-12-10T03:57:37;99192.63;;;16.21;71.13
9523;BME280;63165;43.016;25.784;2022-12-10T04:00:06;99177.56;;;16.23;70.58
9523;BME280;63165;43.016;25.784;2022-12-10T04:02:33;99186.94;;;16.28;69.69
9523;BME280;63165;43.016;25.784;2022-12-10T04:05:02;99190.28;;;16.32;69.80
9523;BME280;63165;43.016;25.784;2022-12-10T04:07:30;99186.38;;;16.39;69.46
9523;BME280;63165;43.016;25.784;2022-12-10T04:09:57;99187.91;;;16.43;68.65
9523;BME280;63165;43.016;25.784;2022-12-10T04:12:24;99185.72;;;16.52;68.15
9523;BME280;63165;43.016;25.784;2022-12-10T04:14:52;99183.66;;;16.57;67.92
9523;BME280;63165;43.016;25.784;2022-12-10T04:17:36;99184.16;;;16.63;67.46
9523;BME280;63165;43.016;25.784;2022-12-10T04:20:06;99178.97;;;16.62;68.49
9523;BME280;63165;43.016;25.784;2022-12-10T04:22:54;99183.50;;;16.60;68.46
9523;BME280;63165;43.016;25.784;2022-12-10T04:25:38;99184.34;;;16.60;68.09
9523;BME280;63165;43.016;25.784;2022-12-10T04:28:23;99179.56;;;16.67;67.36
9523;BME280;63165;43.016;25.784;2022-12-10T04:30:50;99181.09;;;16.71;66.87
9523;BME280;63165;43.016;25.784;2022-12-10T04:33:17;99181.09;;;16.71;66.66
9523;BME280;63165;43.016;25.784;2022-12-10T04:35:46;99187.22;;;16.72;66.13
9523;BME280;63165;43.016;25.784;2022-12-10T04:38:13;99182.47;;;16.78;66.25
9523;BME280;63165;43.016;25.784;2022-12-10T04:40:40;99194.59;;;16.82;65.70
9523;BME280;63165;43.016;25.784;2022-12-10T04:43:08;99180.25;;;16.86;65.60
9523;BME280;63165;43.016;25.784;2022-12-10T04:45:35;99187.34;;;16.86;65.89
9523;BME280;63165;43.016;25.784;2022-12-10T04:48:03;99186.31;;;16.88;65.85
9523;BME280;63165;43.016;25.784;2022-12-10T04:50:30;99177.47;;;16.90;65.29
9523;BME280;63165;43.016;25.784;2022-12-10T04:52:59;99188.94;;;16.88;65.99
9523;BME280;63165;43.016;25.784;2022-12-10T04:55:26;99188.94;;;16.88;66.02
9523;BME280;63165;43.016;25.784;2022-12-10T04:57:53;99183.66;;;16.88;65.95
9523;BME280;63165;43.016;25.784;2022-12-10T05:00:20;99187.25;;;16.87;65.39
9523;BME280;63165;43.016;25.784;2022-12-10T05:02:48;99188.09;;;16.88;65.37
9523;BME280;63165;43.016;25.784;2022-12-10T05:05:16;99188.03;;;16.90;66.08
9523;BME280;63165;43.016;25.784;2022-12-10T05:07:43;99195.09;;;16.89;65.47
9523;BME280;63165;43.016;25.784;2022-12-10T05:10:12;99186.50;;;16.85;65.18
9523;BME280;63165;43.016;25.784;2022-12-10T05:12:39;99187.50;;;16.83;65.58
9523;BME280;63165;43.016;25.784;2022-12-10T05:15:07;99194.44;;;16.85;65.66
9523;BME280;63165;43.016;25.784;2022-12-10T05:17:35;99195.19;;;16.87;65.81
9523;BME280;63165;43.016;25.784;2022-12-10T05:20:02;99188.09;;;16.88;65.46
9523;BME280;63165;43.016;25.784;2022-12-10T05:22:30;99200.00;;;16.79;66.02
9523;BME280;63165;43.016;25.784;2022-12-10T05:25:16;99202.84;;;16.76;66.12
9523;BME280;63165;43.016;25.784;2022-12-10T05:27:43;99202.91;;;16.75;66.19
9523;BME280;63165;43.016;25.784;2022-12-10T05:30:11;99205.78;;;16.70;66.50
9523;BME280;63165;43.016;25.784;2022-12-10T05:32:38;99211.50;;;16.62;67.07
9523;BME280;63165;43.016;25.784;2022-12-10T05:35:06;99213.47;;;16.59;66.94
9523;BME280;63165;43.016;25.784;2022-12-10T05:37:33;99221.56;;;16.56;67.14
9523;BME280;63165;43.016;25.784;2022-12-10T05:40:00;99222.69;;;16.52;68.10
9523;BME280;63165;43.016;25.784;2022-12-10T05:42:29;99216.72;;;16.48;67.41
9523;BME280;63165;43.016;25.784;2022-12-10T05:44:56;99233.53;;;16.45;67.89
9523;BME280;63165;43.016;25.784;2022-12-10T05:47:24;99229.22;;;16.44;67.60
9523;BME280;63165;43.016;25.784;2022-12-10T05:49:51;99237.13;;;16.44;67.65
9523;BME280;63165;43.016;25.784;2022-12-10T05:52:18;99236.38;;;16.42;67.58
9523;BME280;63165;43.016;25.784;2022-12-10T05:54:45;99247.84;;;16.41;68.07
9523;BME280;63165;43.016;25.784;2022-12-10T05:57:12;99226.88;;;16.38;68.02
9523;BME280;63165;43.016;25.784;2022-12-10T05:59:41;99238.56;;;16.34;69.25
9523;BME280;63165;43.016;25.784;2022-12-10T06:02:09;99244.72;;;16.35;69.66
9523;BME280;63165;43.016;25.784;2022-12-10T06:04:36;99234.38;;;16.30;70.24
9523;BME280;63165;43.016;25.784;2022-12-10T06:07:03;99240.56;;;16.29;70.06
9523;BME280;63165;43.016;25.784;2022-12-10T06:09:31;99247.84;;;16.25;69.79
9523;BME280;63165;43.016;25.784;2022-12-10T06:11:58;99237.50;;;16.21;70.06
9523;BME280;63165;43.016;25.784;2022-12-10T06:14:25;99243.97;;;16.15;71.02
9523;BME280;63165;43.016;25.784;2022-12-10T06:16:53;99250.34;;;16.11;71.07
9523;BME280;63165;43.016;25.784;2022-12-10T06:19:20;99236.44;;;16.07;70.86
9523;BME280;63165;43.016;25.784;2022-12-10T06:21:48;99234.13;;;16.01;72.00
9523;BME280;63165;43.016;25.784;2022-12-10T06:24:15;99247.63;;;15.95;72.28
9523;BME280;63165;43.016;25.784;2022-12-10T06:26:42;99242.69;;;15.89;73.46
9523;BME280;63165;43.016;25.784;2022-12-10T06:29:09;99249.03;;;15.85;73.10
9523;BME280;63165;43.016;25.784;2022-12-10T06:31:37;99237.81;;;15.81;73.82
9523;BME280;63165;43.016;25.784;2022-12-10T06:34:05;99246.88;;;15.76;75.23
9523;BME280;63165;43.016;25.784;2022-12-10T06:36:33;99244.34;;;15.72;75.77
9523;BME280;63165;43.016;25.784;2022-12-10T06:39:00;99245.50;;;15.67;75.42
9523;BME280;63165;43.016;25.784;2022-12-10T06:41:27;99244.75;;;15.65;75.76
9523;BME280;63165;43.016;25.784;2022-12-10T06:43:54;99243.13;;;15.62;75.62
9523;BME280;63165;43.016;25.784;2022-12-10T06:46:24;99240.50;;;15.62;76.39
9523;BME280;63165;43.016;25.784;2022-12-10T06:48:52;99245.84;;;15.61;77.27
9523;BME280;63165;43.016;25.784;2022-12-10T06:51:25;99236.19;;;15.60;77.69
9523;BME280;63165;43.016;25.784;2022-12-10T06:53:52;99231.94;;;15.57;78.04
9523;BME280;63165;43.016;25.784;2022-12-10T06:56:29;99227.53;;;15.58;77.74
9523;BME280;63165;43.016;25.784;2022-12-10T06:58:56;99216.19;;;15.56;78.56
9523;BME280;63165;43.016;25.784;2022-12-10T07:01:24;99216.13;;;15.57;79.53
9523;BME280;63165;43.016;25.784;2022-12-10T07:03:53;99212.66;;;15.57;79.55
9523;BME280;63165;43.016;25.784;2022-12-10T07:06:23;99214.28;;;15.59;80.08
9523;BME280;63165;43.016;25.784;2022-12-10T07:08:51;99204.34;;;15.64;79.85
9523;BME280;63165;43.016;25.784;2022-12-10T07:11:20;99207.69;;;15.68;79.54
9523;BME280;63165;43.016;25.784;2022-12-10T07:13:47;99204.59;;;15.77;78.72
9523;BME280;63165;43.016;25.784;2022-12-10T07:16:17;99199.78;;;15.85;77.80
9523;BME280;63165;43.016;25.784;2022-12-10T07:18:45;99200.13;;;15.95;77.52
9523;BME280;63165;43.016;25.784;2022-12-10T07:21:15;99200.59;;;16.03;76.59
9523;BME280;63165;43.016;25.784;2022-12-10T07:23:45;99203.75;;;16.10;75.71
9523;BME280;63165;43.016;25.784;2022-12-10T07:26:12;99197.16;;;16.19;74.97
9523;BME280;63165;43.016;25.784;2022-12-10T07:28:40;99198.69;;;16.23;75.20
9523;BME280;63165;43.016;25.784;2022-12-10T07:31:09;99198.44;;;16.27;74.83
9523;BME280;63165;43.016;25.784;2022-12-10T07:33:37;99195.63;;;16.30;74.65
9523;BME280;63165;43.016;25.784;2022-12-10T07:36:05;99199.56;;;16.39;74.89
9523;BME280;63165;43.016;25.784;2022-12-10T07:39:04;99189.53;;;16.46;75.44
9523;BME280;63165;43.016;25.784;2022-12-10T07:41:34;99189.97;;;16.54;74.85
9523;BME280;63165;43.016;25.784;2022-12-10T07:44:26;99186.22;;;16.58;75.21
9523;BME280;63165;43.016;25.784;2022-12-10T07:46:54;99178.81;;;16.65;75.20
9523;BME280;63165;43.016;25.784;2022-12-10T07:49:22;99191.66;;;16.71;74.76
9523;BME280;63165;43.016;25.784;2022-12-10T07:54:36;99181.91;;;16.89;72.66
9523;BME280;63165;43.016;25.784;2022-12-10T07:57:05;99177.84;;;16.98;73.80
9523;BME280;63165;43.016;25.784;2022-12-10T07:59:33;99180.34;;;17.01;73.86
9523;BME280;63165;43.016;25.784;2022-12-10T08:02:23;99185.25;;;17.07;73.97
9523;BME280;63165;43.016;25.784;2022-12-10T08:05:13;99195.59;;;17.12;73.53
9523;BME280;63165;43.016;25.784;2022-12-10T08:07:49;99187.28;;;17.18;71.10
9523;BME280;63165;43.016;25.784;2022-12-10T08:10:20;99182.41;;;17.26;69.78
9523;BME280;63165;43.016;25.784;2022-12-10T08:12:47;99178.31;;;17.36;68.32
9523;BME280;63165;43.016;25.784;2022-12-10T08:15:14;99175.03;;;17.47;67.73
9523;BME280;63165;43.016;25.784;2022-12-10T08:17:42;99174.56;;;17.55;65.33
9523;BME280;63165;43.016;25.784;2022-12-10T08:20:16;99166.75;;;17.68;64.99
9523;BME280;63165;43.016;25.784;2022-12-10T08:22:45;99160.91;;;17.77;63.92
9523;BME280;63165;43.016;25.784;2022-12-10T08:25:59;99168.22;;;17.88;62.84
9523;BME280;63165;43.016;25.784;2022-12-10T08:28:30;99158.88;;;17.96;63.09
9523;BME280;63165;43.016;25.784;2022-12-10T08:31:17;99164.66;;;18.03;63.41
9523;BME280;63165;43.016;25.784;2022-12-10T08:34:17;99169.81;;;18.04;63.26
9523;BME280;63165;43.016;25.784;2022-12-10T08:36:48;99172.28;;;18.08;63.67
9523;BME280;63165;43.016;25.784;2022-12-10T08:39:17;99158.00;;;18.10;63.04
9523;BME280;63165;43.016;25.784;2022-12-10T08:42:00;99170.88;;;18.16;62.68
9523;BME280;63165;43.016;25.784;2022-12-10T08:44:29;99159.81;;;18.24;62.63
9523;BME280;63165;43.016;25.784;2022-12-10T08:47:24;99156.19;;;18.25;63.02
9523;BME280;63165;43.016;25.784;2022-12-10T08:49:52;99142.69;;;18.30;62.45
9523;BME280;63165;43.016;25.784;2022-12-10T08:52:45;99148.53;;;18.35;62.30
9523;BME280;63165;43.016;25.784;2022-12-10T08:55:13;99149.97;;;18.40;61.25
9523;BME280;63165;43.016;25.784;2022-12-10T09:00:43;99139.53;;;18.52;59.75
9523;BME280;63165;43.016;25.784;2022-12-10T09:03:27;99134.00;;;18.55;60.92
9523;BME280;63165;43.016;25.784;2022-12-10T09:05:55;99122.38;;;18.57;61.56
9523;BME280;63165;43.016;25.784;2022-12-10T09:08:35;99120.91;;;18.66;62.27
9523;BME280;63165;43.016;25.784;2022-12-10T09:11:07;99108.97;;;18.73;60.96
9523;BME280;63165;43.016;25.784;2022-12-10T09:13:37;99100.84;;;18.76;60.55
9523;BME280;63165;43.016;25.784;2022-12-10T09:16:07;99098.56;;;18.85;61.05
9523;BME280;63165;43.016;25.784;2022-12-10T09:18:37;99099.66;;;18.95;60.07
9523;BME280;63165;43.016;25.784;2022-12-10T09:21:12;99095.53;;;19.04;58.73
9523;BME280;63165;43.016;25.784;2022-12-10T09:23:39;99088.66;;;19.14;58.52
9523;BME280;63165;43.016;25.784;2022-12-10T09:26:07;99085.59;;;19.20;57.71
9523;BME280;63165;43.016;25.784;2022-12-10T09:28:36;99084.31;;;19.26;56.94
9523;BME280;63165;43.016;25.784;2022-12-10T09:31:06;99083.16;;;19.30;56.93
9523;BME280;63165;43.016;25.784;2022-12-10T09:33:35;99088.81;;;19.38;57.09
9523;BME280;63165;43.016;25.784;2022-12-10T09:36:03;99082.13;;;19.45;56.97
9523;BME280;63165;43.016;25.784;2022-12-10T09:38:31;99077.34;;;19.50;57.14
9523;BME280;63165;43.016;25.784;2022-12-10T09:41:00;99068.00;;;19.57;56.83
9523;BME280;63165;43.016;25.784;2022-12-10T09:43:41;99066.19;;;19.71;55.52
9523;BME280;63165;43.016;25.784;2022-12-10T09:46:19;99054.41;;;19.75;55.24
9523;BME280;63165;43.016;25.784;2022-12-10T09:49:02;99049.63;;;19.80;54.79
9523;BME280;63165;43.016;25.784;2022-12-10T09:51:33;99045.06;;;19.82;54.88
9523;BME280;63165;43.016;25.784;2022-12-10T09:54:03;99045.16;;;19.81;54.93
9523;BME280;63165;43.016;25.784;2022-12-10T09:56:33;99025.00;;;19.78;55.29
9523;BME280;63165;43.016;25.784;2022-12-10T09:59:08;99029.59;;;19.76;54.01
9523;BME280;63165;43.016;25.784;2022-12-10T10:01:43;99014.41;;;19.78;53.97
9523;BME280;63165;43.016;25.784;2022-12-10T10:04:13;99007.81;;;19.84;54.51
9523;BME280;63165;43.016;25.784;2022-12-10T10:06:41;99004.84;;;19.88;54.04
9523;BME280;63165;43.016;25.784;2022-12-10T10:09:12;98999.63;;;19.87;53.84
9523;BME280;63165;43.016;25.784;2022-12-10T10:11:42;98994.22;;;19.88;54.23
9523;BME280;63165;43.016;25.784;2022-12-10T10:14:21;98992.19;;;19.92;53.91
9523;BME280;63165;43.016;25.784;2022-12-10T10:17:00;98981.34;;;19.95;53.98
9523;BME280;63165;43.016;25.784;2022-12-10T10:19:31;98981.97;;;19.98;54.05
9523;BME280;63165;43.016;25.784;2022-12-10T10:22:21;98962.91;;;20.05;52.56
9523;BME280;63165;43.016;25.784;2022-12-10T10:24:53;98967.44;;;20.15;52.50
9523;BME280;63165;43.016;25.784;2022-12-10T10:27:37;98978.22;;;20.25;52.18
9523;BME280;63165;43.016;25.784;2022-12-10T10:30:13;98976.50;;;20.37;51.56
9523;BME280;63165;43.016;25.784;2022-12-10T10:33:02;98980.03;;;20.49;49.95
9523;BME280;63165;43.016;25.784;2022-12-10T10:35:53;98967.56;;;20.62;49.84
9523;BME280;63165;43.016;25.784;2022-12-10T10:38:38;98963.56;;;20.68;49.95
9523;BME280;63165;43.016;25.784;2022-12-10T10:41:14;98955.00;;;20.75;48.90
9523;BME280;63165;43.016;25.784;2022-12-10T10:43:42;98945.72;;;20.81;49.49
9523;BME280;63165;43.016;25.784;2022-12-10T10:46:26;98940.78;;;20.88;49.39
9523;BME280;63165;43.016;25.784;2022-12-10T10:49:19;98936.94;;;20.92;48.39
9523;BME280;63165;43.016;25.784;2022-12-10T10:52:05;98932.13;;;20.97;48.46
9523;BME280;63165;43.016;25.784;2022-12-10T10:54:38;98946.97;;;21.00;48.20
9523;BME280;63165;43.016;25.784;2022-12-10T11:00:28;98941.53;;;21.01;47.45
9523;BME280;63165;43.016;25.784;2022-12-10T11:03:01;98943.09;;;21.04;47.79
9523;BME280;63165;43.016;25.784;2022-12-10T11:05:47;98947.47;;;21.05;48.05
9523;BME280;63165;43.016;25.784;2022-12-10T11:08:24;98935.13;;;21.04;48.03
9523;BME280;63165;43.016;25.784;2022-12-10T11:11:06;98943.97;;;21.04;47.38
9523;BME280;63165;43.016;25.784;2022-12-10T11:13:39;98941.78;;;21.09;47.52
9523;BME280;63165;43.016;25.784;2022-12-10T11:16:12;98951.34;;;21.12;47.37
9523;BME280;63165;43.016;25.784;2022-12-10T11:18:55;98936.22;;;21.12;47.21
9523;BME280;63165;43.016;25.784;2022-12-10T11:21:30;98931.03;;;21.11;46.50
9523;BME280;63165;43.016;25.784;2022-12-10T11:24:00;98932.84;;;21.10;46.87
9523;BME280;63165;43.016;25.784;2022-12-10T11:26:47;98925.69;;;21.11;46.51
9523;BME280;63165;43.016;25.784;2022-12-10T11:29:34;98932.72;;;21.12;47.23
9523;BME280;63165;43.016;25.784;2022-12-10T11:32:14;98924.16;;;21.08;47.10
9523;BME280;63165;43.016;25.784;2022-12-10T11:34:54;98918.81;;;21.08;47.02
9523;BME280;63165;43.016;25.784;2022-12-10T11:40:36;98908.41;;;21.05;47.36
9523;BME280;63165;43.016;25.784;2022-12-10T11:43:24;98900.44;;;21.05;47.88
9523;BME280;63165;43.016;25.784;2022-12-10T11:46:07;98895.13;;;21.05;47.85
9523;BME280;63165;43.016;25.784;2022-12-10T11:48:52;98899.38;;;21.08;47.80
9523;BME280;63165;43.016;25.784;2022-12-10T11:51:34;98901.78;;;21.11;47.66
9523;BME280;63165;43.016;25.784;2022-12-10T11:54:27;98907.69;;;21.14;47.63
9523;BME280;63165;43.016;25.784;2022-12-10T11:57:03;98901.03;;;21.20;47.27
9523;BME280;63165;43.016;25.784;2022-12-10T11:59:42;98895.50;;;21.23;47.08
9523;BME280;63165;43.016;25.784;2022-12-10T12:02:32;98896.31;;;21.24;46.22
9523;BME280;63165;43.016;25.784;2022-12-10T12:05:15;98899.94;;;21.23;46.76
9523;BME280;63165;43.016;25.784;2022-12-10T12:07:49;98891.13;;;21.22;46.14
9523;BME280;63165;43.016;25.784;2022-12-10T12:10:35;98885.91;;;21.21;45.60
9523;BME280;63165;43.016;25.784;2022-12-10T12:13:11;98880.59;;;21.21;46.18
9523;BME280;63165;43.016;25.784;2022-12-10T12:15:44;98881.81;;;21.17;45.94
9523;BME280;63165;43.016;25.784;2022-12-10T12:18:16;98888.13;;;21.16;46.19
9523;BME280;63165;43.016;25.784;2022-12-10T12:20:48;98886.31;;;21.16;46.28
9523;BME280;63165;43.016;25.784;2022-12-10T12:23:21;98875.06;;;21.12;46.33
9523;BME280;63165;43.016;25.784;2022-12-10T12:25:55;98876.00;;;21.11;46.75
9523;BME280;63165;43.016;25.784;2022-12-10T12:28:26;98874.94;;;21.14;46.88
9523;BME280;63165;43.016;25.784;2022-12-10T12:30:58;98868.91;;;21.12;47.02
9523;BME280;63165;43.016;25.784;2022-12-10T12:33:29;98861.88;;;21.11;46.90
9523;BME280;63165;43.016;25.784;2022-12-10T12:36:00;98861.16;;;21.09;47.09
9523;BME280;63165;43.016;25.784;2022-12-10T12:38:32;98861.38;;;21.06;46.37
9523;BME280;63165;43.016;25.784;2022-12-10T12:41:05;98848.25;;;21.04;46.64
9523;BME280;63165;43.016;25.784;2022-12-10T12:43:42;98847.63;;;21.01;46.13
9523;BME280;63165;43.016;25.784;2022-12-10T12:46:19;98848.97;;;20.95;46.37
9523;BME280;63165;43.016;25.784;2022-12-10T12:48:52;98852.47;;;20.96;45.86
9523;BME280;63165;43.016;25.784;2022-12-10T12:51:24;98850.75;;;20.94;46.75
9523;BME280;63165;43.016;25.784;2022-12-10T12:53:53;98852.94;;;20.89;47.09
9523;BME280;63165;43.016;25.784;2022-12-10T12:56:28;98861.03;;;20.88;46.89
9523;BME280;63165;43.016;25.784;2022-12-10T12:59:08;98863.94;;;20.85;46.96
9523;BME280;63165;43.016;25.784;2022-12-10T13:01:43;98860.66;;;20.81;47.34
9523;BME280;63165;43.016;25.784;2022-12-10T13:04:14;98870.56;;;20.79;47.21
9523;BME280;63165;43.016;25.784;2022-12-10T13:06:43;98866.56;;;20.73;47.55
9523;BME280;63165;43.016;25.784;2022-12-10T13:09:30;98857.28;;;20.68;47.25
9523;BME280;63165;43.016;25.784;2022-12-10T13:12:29;98854.13;;;20.63;47.23
9523;BME280;63165;43.016;25.784;2022-12-10T13:15:16;98850.09;;;20.57;47.54
9523;BME280;63165;43.016;25.784;2022-12-10T13:18:17;98843.44;;;20.51;47.96
9523;BME280;63165;43.016;25.784;2022-12-10T13:20:48;98840.31;;;20.46;47.99
9523;BME280;63165;43.016;25.784;2022-12-10T13:23:33;98831.97;;;20.40;48.32
9523;BME280;63165;43.016;25.784;2022-12-10T13:26:01;98835.72;;;20.37;49.14
9523;BME280;63165;43.016;25.784;2022-12-10T13:28:40;98843.50;;;20.27;49.43
9523;BME280;63165;43.016;25.784;2022-12-10T13:31:18;98841.09;;;20.24;49.75
9523;BME280;63165;43.016;25.784;2022-12-10T13:33:49;98840.38;;;20.22;49.86
9523;BME280;63165;43.016;25.784;2022-12-10T13:36:21;98844.34;;;20.16;49.90
9523;BME280;63165;43.016;25.784;2022-12-10T13:38:57;98846.38;;;20.13;49.18
9523;BME280;63165;43.016;25.784;2022-12-10T13:41:25;98841.28;;;20.10;50.00